sensor_id;sensor_type;location;lat;lon;timestamp;temperature;humidity
33368;DHT22;19724;51.114;13.906;2023-03-14T00:00:38;10.00;99.90
33368;DHT22;19724;51.114;13.906;2023-03-14T00:03:06;10.00;99.90
33368;DHT22;19724;51.114;13.906;2023-03-14T00:05:33;10.00;99.90
33368;DHT22;19724;51.114;13.906;2023-03-14T00:07:59;10.00;99.90
33368;DHT22;19724;51.114;13.906;2023-03-14T00:10:24;10.00;99.90
33368;DHT22;19724;51.114;13.906;2023-03-14T00:12:50;10.00;99.90
33368;DHT22;19724;51.114;13.906;2023-03-14T00:15:16;10.00;99.90
33368;DHT22;19724;51.114;13.906;2023-03-14T00:17:43;9.90;99.90
33368;DHT22;19724;51.114;13.906;2023-03-14T00:20:10;9.90;99.90
33368;DHT22;19724;51.114;13.906;2023-03-14T00:22:38;9.90;99.90
33368;DHT22;19724;51.114;13.906;2023-03-14T00:25:05;9.90;99.90
33368;DHT22;19724;51.114;13.906;2023-03-14T00:27:32;9.90;99.90
33368;DHT22;19724;51.114;13.906;2023-03-14T00:29:58;9.80;99.90
33368;DHT22;19724;51.114;13.906;2023-03-14T00:32:24;9.80;99.90
33368;DHT22;19724;51.114;13.906;2023-03-14T00:34:50;9.80;99.90
33368;DHT22;19724;51.114;13.906;2023-03-14T00:37:16;9.80;99.90
33368;DHT22;19724;51.114;13.906;2023-03-14T00:39:41;9.80;99.90
33368;DHT22;19724;51.114;13.906;2023-03-14T00:42:07;9.70;99.90
33368;DHT22;19724;51.114;13.906;2023-03-14T00:44:33;9.80;99.90
33368;DHT22;19724;51.114;13.906;2023-03-14T00:46:58;9.70;99.90
33368;DHT22;19724;51.114;13.906;2023-03-14T00:49:24;9.70;99.90
33368;DHT22;19724;51.114;13.906;2023-03-14T00:51:50;9.70;99.90
33368;DHT22;19724;51.114;13.906;2023-03-14T00:54:17;9.70;99.90
33368;DHT22;19724;51.114;13.906;2023-03-14T00:56:43;9.70;99.90
33368;DHT22;19724;51.114;13.906;2023-03-14T00:59:10;9.70;99.90
33368;DHT22;19724;51.114;13.906;2023-03-14T01:01:35;9.70;99.90
33368;DHT22;19724;51.114;13.906;2023-03-14T01:04:01;9.70;99.90
33368;DHT22;19724;51.114;13.906;2023-03-14T01:06:28;9.70;99.90
33368;DHT22;19724;51.114;13.906;2023-03-14T01:08:55;9.70;99.90
33368;DHT22;19724;51.114;13.906;2023-03-14T01:11:27;9.70;99.90
33368;DHT22;19724;51.114;13.906;2023-03-14T01:13:53;9.80;99.90
33368;DHT22;19724;51.114;13.906;2023-03-14T01:16:21;9.80;99.90
33368;DHT22;19724;51.114;13.906;2023-03-14T01:18:47;9.80;99.90
33368;DHT22;19724;51.114;13.906;2023-03-14T01:21:14;9.90;99.90
33368;DHT22;19724;51.114;13.906;2023-03-14T01:23:42;9.90;99.90
33368;DHT22;19724;51.114;13.906;2023-03-14T01:26:17;9.90;99.90
33368;DHT22;19724;51.114;13.906;2023-03-14T01:28:45;9.90;99.90
33368;DHT22;19724;51.114;13.906;2023-03-14T01:31:11;9.90;99.90
33368;DHT22;19724;51.114;13.906;2023-03-14T01:33:38;9.90;99.90
33368;DHT22;19724;51.114;13.906;2023-03-14T01:36:04;9.90;99.90
33368;DHT22;19724;51.114;13.906;2023-03-14T01:38:31;9.90;99.90
33368;DHT22;19724;51.114;13.906;2023-03-14T01:40:58;9.90;99.90
33368;DHT22;19724;51.114;13.906;2023-03-14T01:43:24;10.00;99.90
33368;DHT22;19724;51.114;13.906;2023-03-14T01:51:11;10.00;99.90
33368;DHT22;19724;51.114;13.906;2023-03-14T01:53:39;9.90;99.90
33368;DHT22;19724;51.114;13.906;2023-03-14T01:56:08;9.90;99.90
33368;DHT22;19724;51.114;13.906;2023-03-14T01:58:37;9.90;99.90
33368;DHT22;19724;51.114;13.906;2023-03-14T02:01:04;9.90;99.90
33368;DHT22;19724;51.114;13.906;2023-03-14T02:03:39;9.90;99.90
33368;DHT22;19724;51.114;13.906;2023-03-14T02:06:10;9.90;99.90
33368;DHT22;19724;51.114;13.906;2023-03-14T02:08:37;9.90;99.90
33368;DHT22;19724;51.114;13.906;2023-03-14T02:11:05;9.90;99.90
33368;DHT22;19724;51.114;13.906;2023-03-14T02:13:32;9.90;99.90
33368;DHT22;19724;51.114;13.906;2023-03-14T02:15:58;9.90;99.90
33368;DHT22;19724;51.114;13.906;2023-03-14T02:18:24;9.90;99.90
33368;DHT22;19724;51.114;13.906;2023-03-14T02:21:05;9.90;99.90
33368;DHT22;19724;51.114;13.906;2023-03-14T02:27:02;9.90;99.90
33368;DHT22;19724;51.114;13.906;2023-03-14T02:29:29;9.90;99.90
33368;DHT22;19724;51.114;13.906;2023-03-14T02:31:55;9.90;99.90
33368;DHT22;19724;51.114;13.906;2023-03-14T02:34:21;9.90;99.90
33368;DHT22;19724;51.114;13.906;2023-03-14T02:36:47;9.90;99.90
33368;DHT22;19724;51.114;13.906;2023-03-14T02:39:32;9.90;99.90
33368;DHT22;19724;51.114;13.906;2023-03-14T02:42:00;9.90;99.90
33368;DHT22;19724;51.114;13.906;2023-03-14T02:44:26;9.80;99.90
33368;DHT22;19724;51.114;13.906;2023-03-14T02:46:51;9.90;99.90
33368;DHT22;19724;51.114;13.906;2023-03-14T02:49:17;9.90;99.90
33368;DHT22;19724;51.114;13.906;2023-03-14T02:51:45;9.90;99.90
33368;DHT22;19724;51.114;13.906;2023-03-14T02:54:11;9.90;99.90
33368;DHT22;19724;51.114;13.906;2023-03-14T02:56:38;9.90;99.90
33368;DHT22;19724;51.114;13.906;2023-03-14T02:59:04;9.90;99.90
33368;DHT22;19724;51.114;13.906;2023-03-14T03:01:32;9.90;99.90
33368;DHT22;19724;51.114;13.906;2023-03-14T03:03:58;9.90;99.90
33368;DHT22;19724;51.114;13.906;2023-03-14T03:06:24;9.90;99.90
33368;DHT22;19724;51.114;13.906;2023-03-14T03:08:49;9.90;99.90
33368;DHT22;19724;51.114;13.906;2023-03-14T03:11:15;9.90;99.90
33368;DHT22;19724;51.114;13.906;2023-03-14T03:13:41;9.90;99.90
33368;DHT22;19724;51.114;13.906;2023-03-14T03:16:07;9.90;99.90
33368;DHT22;19724;51.114;13.906;2023-03-14T03:18:32;9.90;99.90
33368;DHT22;19724;51.114;13.906;2023-03-14T03:21:03;9.90;99.90
33368;DHT22;19724;51.114;13.906;2023-03-14T03:23:29;9.90;99.90
33368;DHT22;19724;51.114;13.906;2023-03-14T03:25:55;9.90;99.90
33368;DHT22;19724;51.114;13.906;2023-03-14T03:28:21;9.90;99.90
33368;DHT22;19724;51.114;13.906;2023-03-14T03:33:16;9.90;99.90
33368;DHT22;19724;51.114;13.906;2023-03-14T03:35:43;9.90;99.90
33368;DHT22;19724;51.114;13.906;2023-03-14T03:38:09;9.90;99.90
33368;DHT22;19724;51.114;13.906;2023-03-14T03:40:34;9.90;99.90
33368;DHT22;19724;51.114;13.906;2023-03-14T03:43:00;9.90;99.90
33368;DHT22;19724;51.114;13.906;2023-03-14T03:45:25;9.90;99.90
33368;DHT22;19724;51.114;13.906;2023-03-14T03:47:51;9.80;99.90
33368;DHT22;19724;51.114;13.906;2023-03-14T03:50:16;9.90;99.90
33368;DHT22;19724;51.114;13.906;2023-03-14T03:52:42;9.90;99.90
33368;DHT22;19724;51.114;13.906;2023-03-14T03:55:08;9.90;99.90
33368;DHT22;19724;51.114;13.906;2023-03-14T03:57:34;9.80;99.90
33368;DHT22;19724;51.114;13.906;2023-03-14T04:00:00;9.90;99.90
33368;DHT22;19724;51.114;13.906;2023-03-14T04:02:25;9.80;99.90
33368;DHT22;19724;51.114;13.906;2023-03-14T04:04:51;9.80;99.90
33368;DHT22;19724;51.114;13.906;2023-03-14T04:07:16;9.90;99.90
33368;DHT22;19724;51.114;13.906;2023-03-14T04:09:41;9.90;99.90
33368;DHT22;19724;51.114;13.906;2023-03-14T04:12:07;9.80;99.90
33368;DHT22;19724;51.114;13.906;2023-03-14T04:14:32;10.00;99.90
33368;DHT22;19724;51.114;13.906;2023-03-14T04:16:58;9.80;99.90
33368;DHT22;19724;51.114;13.906;2023-03-14T04:19:23;9.80;99.90
33368;DHT22;19724;51.114;13.906;2023-03-14T04:21:49;9.90;99.90
33368;DHT22;19724;51.114;13.906;2023-03-14T04:24:14;9.80;99.90
33368;DHT22;19724;51.114;13.906;2023-03-14T04:26:40;9.90;99.90
33368;DHT22;19724;51.114;13.906;2023-03-14T04:29:05;9.90;99.90
33368;DHT22;19724;51.114;13.906;2023-03-14T04:31:31;9.80;99.90
33368;DHT22;19724;51.114;13.906;2023-03-14T04:33:56;9.80;99.90
33368;DHT22;19724;51.114;13.906;2023-03-14T04:36:22;9.80;99.90
33368;DHT22;19724;51.114;13.906;2023-03-14T04:38:47;9.80;99.90
33368;DHT22;19724;51.114;13.906;2023-03-14T04:41:12;9.90;99.90
33368;DHT22;19724;51.114;13.906;2023-03-14T04:43:38;9.80;99.90
33368;DHT22;19724;51.114;13.906;2023-03-14T04:46:04;9.80;99.90
33368;DHT22;19724;51.114;13.906;2023-03-14T04:48:29;9.80;99.90
33368;DHT22;19724;51.114;13.906;2023-03-14T04:50:55;9.70;99.90
33368;DHT22;19724;51.114;13.906;2023-03-14T04:53:21;9.70;99.90
33368;DHT22;19724;51.114;13.906;2023-03-14T04:55:54;9.80;99.90
33368;DHT22;19724;51.114;13.906;2023-03-14T04:58:20;9.80;99.90
33368;DHT22;19724;51.114;13.906;2023-03-14T05:00:47;9.70;99.90
33368;DHT22;19724;51.114;13.906;2023-03-14T05:03:15;9.70;99.90
33368;DHT22;19724;51.114;13.906;2023-03-14T05:05:40;9.70;99.90
33368;DHT22;19724;51.114;13.906;2023-03-14T05:08:06;9.70;99.90
33368;DHT22;19724;51.114;13.906;2023-03-14T05:10:32;9.60;99.90
33368;DHT22;19724;51.114;13.906;2023-03-14T05:12:57;9.70;99.90
33368;DHT22;19724;51.114;13.906;2023-03-14T05:15:23;9.70;99.90
33368;DHT22;19724;51.114;13.906;2023-03-14T05:17:48;9.70;99.90
33368;DHT22;19724;51.114;13.906;2023-03-14T05:20:14;9.70;99.90
33368;DHT22;19724;51.114;13.906;2023-03-14T05:22:40;9.70;99.90
33368;DHT22;19724;51.114;13.906;2023-03-14T05:25:06;9.60;99.90
33368;DHT22;19724;51.114;13.906;2023-03-14T05:27:33;9.60;99.90
33368;DHT22;19724;51.114;13.906;2023-03-14T05:29:58;9.60;99.90
33368;DHT22;19724;51.114;13.906;2023-03-14T05:32:24;9.60;99.90
33368;DHT22;19724;51.114;13.906;2023-03-14T05:34:49;9.60;99.90
33368;DHT22;19724;51.114;13.906;2023-03-14T05:37:15;9.60;99.90
33368;DHT22;19724;51.114;13.906;2023-03-14T05:39:40;9.60;99.90
33368;DHT22;19724;51.114;13.906;2023-03-14T05:42:05;9.60;99.90
33368;DHT22;19724;51.114;13.906;2023-03-14T05:44:31;9.60;99.90
33368;DHT22;19724;51.114;13.906;2023-03-14T05:46:59;9.60;99.90
33368;DHT22;19724;51.114;13.906;2023-03-14T05:49:25;9.60;99.90
33368;DHT22;19724;51.114;13.906;2023-03-14T05:51:51;9.60;99.90
33368;DHT22;19724;51.114;13.906;2023-03-14T05:54:16;9.50;99.90
33368;DHT22;19724;51.114;13.906;2023-03-14T05:56:43;9.60;99.90
33368;DHT22;19724;51.114;13.906;2023-03-14T05:59:08;9.60;99.90
33368;DHT22;19724;51.114;13.906;2023-03-14T06:01:35;9.60;99.90
33368;DHT22;19724;51.114;13.906;2023-03-14T06:04:03;9.60;99.90
33368;DHT22;19724;51.114;13.906;2023-03-14T06:06:30;9.60;99.90
33368;DHT22;19724;51.114;13.906;2023-03-14T06:08:55;9.60;99.90
33368;DHT22;19724;51.114;13.906;2023-03-14T06:11:20;9.60;99.90
33368;DHT22;19724;51.114;13.906;2023-03-14T06:13:46;9.70;99.90
33368;DHT22;19724;51.114;13.906;2023-03-14T06:16:12;9.70;99.90
33368;DHT22;19724;51.114;13.906;2023-03-14T06:18:38;9.70;99.90
33368;DHT22;19724;51.114;13.906;2023-03-14T06:21:06;9.80;99.90
33368;DHT22;19724;51.114;13.906;2023-03-14T06:23:32;9.70;99.90
33368;DHT22;19724;51.114;13.906;2023-03-14T06:25:57;9.60;99.90
33368;DHT22;19724;51.114;13.906;2023-03-14T06:28:23;9.70;99.90
33368;DHT22;19724;51.114;13.906;2023-03-14T06:30:48;9.70;99.90
33368;DHT22;19724;51.114;13.906;2023-03-14T06:33:14;9.80;99.90
33368;DHT22;19724;51.114;13.906;2023-03-14T06:35:39;9.80;99.90
33368;DHT22;19724;51.114;13.906;2023-03-14T06:38:05;9.80;99.90
33368;DHT22;19724;51.114;13.906;2023-03-14T06:40:30;9.80;99.90
33368;DHT22;19724;51.114;13.906;2023-03-14T06:42:56;9.80;99.90
33368;DHT22;19724;51.114;13.906;2023-03-14T06:45:21;9.90;99.90
33368;DHT22;19724;51.114;13.906;2023-03-14T06:47:47;9.90;99.90
33368;DHT22;19724;51.114;13.906;2023-03-14T06:50:12;9.90;99.90
33368;DHT22;19724;51.114;13.906;2023-03-14T06:52:38;9.90;99.90
33368;DHT22;19724;51.114;13.906;2023-03-14T06:55:07;10.00;99.90
33368;DHT22;19724;51.114;13.906;2023-03-14T06:57:33;10.00;99.90
33368;DHT22;19724;51.114;13.906;2023-03-14T06:59:58;10.10;99.90
33368;DHT22;19724;51.114;13.906;2023-03-14T07:02:24;10.10;99.90
33368;DHT22;19724;51.114;13.906;2023-03-14T07:04:49;10.10;99.90
33368;DHT22;19724;51.114;13.906;2023-03-14T07:07:15;10.10;99.90
33368;DHT22;19724;51.114;13.906;2023-03-14T07:09:41;10.20;99.90
33368;DHT22;19724;51.114;13.906;2023-03-14T07:12:07;10.20;99.90
33368;DHT22;19724;51.114;13.906;2023-03-14T07:14:32;10.40;99.90
33368;DHT22;19724;51.114;13.906;2023-03-14T07:16:58;10.30;99.90
33368;DHT22;19724;51.114;13.906;2023-03-14T07:19:23;10.30;99.90
33368;DHT22;19724;51.114;13.906;2023-03-14T07:21:49;10.30;99.90
33368;DHT22;19724;51.114;13.906;2023-03-14T07:24:14;10.30;99.90
33368;DHT22;19724;51.114;13.906;2023-03-14T07:26:40;10.50;99.90
33368;DHT22;19724;51.114;13.906;2023-03-14T07:29:05;10.40;99.90
33368;DHT22;19724;51.114;13.906;2023-03-14T07:31:31;10.50;99.90
33368;DHT22;19724;51.114;13.906;2023-03-14T07:33:56;10.40;99.90
33368;DHT22;19724;51.114;13.906;2023-03-14T07:36:22;10.50;99.90
33368;DHT22;19724;51.114;13.906;2023-03-14T07:38:47;10.50;99.90
33368;DHT22;19724;51.114;13.906;2023-03-14T07:41:13;10.50;99.90
33368;DHT22;19724;51.114;13.906;2023-03-14T07:43:39;10.50;99.90
33368;DHT22;19724;51.114;13.906;2023-03-14T07:46:05;10.60;99.90
33368;DHT22;19724;51.114;13.906;2023-03-14T07:48:30;10.60;99.90
33368;DHT22;19724;51.114;13.906;2023-03-14T07:50:56;10.60;99.90
33368;DHT22;19724;51.114;13.906;2023-03-14T07:53:22;10.70;99.90
33368;DHT22;19724;51.114;13.906;2023-03-14T07:55:48;10.70;99.90
33368;DHT22;19724;51.114;13.906;2023-03-14T07:58:15;10.70;99.90
33368;DHT22;19724;51.114;13.906;2023-03-14T08:00:40;10.70;99.90
33368;DHT22;19724;51.114;13.906;2023-03-14T08:03:06;10.70;99.90
33368;DHT22;19724;51.114;13.906;2023-03-14T08:05:35;10.70;99.90
33368;DHT22;19724;51.114;13.906;2023-03-14T08:08:00;10.80;99.90
33368;DHT22;19724;51.114;13.906;2023-03-14T08:10:26;10.90;99.90
33368;DHT22;19724;51.114;13.906;2023-03-14T08:12:57;10.90;99.90
33368;DHT22;19724;51.114;13.906;2023-03-14T08:15:23;11.00;99.90
33368;DHT22;19724;51.114;13.906;2023-03-14T08:17:50;11.10;99.90
33368;DHT22;19724;51.114;13.906;2023-03-14T08:20:21;11.10;99.90
33368;DHT22;19724;51.114;13.906;2023-03-14T08:22:47;11.10;99.90
33368;DHT22;19724;51.114;13.906;2023-03-14T08:25:13;11.20;99.90
33368;DHT22;19724;51.114;13.906;2023-03-14T08:27:38;11.30;99.90
33368;DHT22;19724;51.114;13.906;2023-03-14T08:30:05;11.30;99.90
33368;DHT22;19724;51.114;13.906;2023-03-14T08:32:31;11.40;99.90
33368;DHT22;19724;51.114;13.906;2023-03-14T08:34:57;11.50;99.90
33368;DHT22;19724;51.114;13.906;2023-03-14T08:37:23;11.50;99.90
33368;DHT22;19724;51.114;13.906;2023-03-14T08:39:50;11.60;99.90
33368;DHT22;19724;51.114;13.906;2023-03-14T08:42:15;11.70;99.90
33368;DHT22;19724;51.114;13.906;2023-03-14T08:44:41;11.80;99.90
33368;DHT22;19724;51.114;13.906;2023-03-14T08:47:06;11.80;99.90
33368;DHT22;19724;51.114;13.906;2023-03-14T08:49:32;11.90;99.90
33368;DHT22;19724;51.114;13.906;2023-03-14T08:51:57;12.00;99.90
33368;DHT22;19724;51.114;13.906;2023-03-14T08:54:24;12.10;99.90
33368;DHT22;19724;51.114;13.906;2023-03-14T08:56:49;12.20;99.90
33368;DHT22;19724;51.114;13.906;2023-03-14T08:59:14;12.20;99.90
33368;DHT22;19724;51.114;13.906;2023-03-14T09:01:40;12.30;99.90
33368;DHT22;19724;51.114;13.906;2023-03-14T09:04:05;12.40;99.90
33368;DHT22;19724;51.114;13.906;2023-03-14T09:06:32;12.50;99.90
33368;DHT22;19724;51.114;13.906;2023-03-14T09:08:57;12.50;99.90
33368;DHT22;19724;51.114;13.906;2023-03-14T09:11:23;12.40;99.90
33368;DHT22;19724;51.114;13.906;2023-03-14T09:13:48;12.50;99.90
33368;DHT22;19724;51.114;13.906;2023-03-14T09:16:14;12.60;99.90
33368;DHT22;19724;51.114;13.906;2023-03-14T09:18:39;12.60;99.90
33368;DHT22;19724;51.114;13.906;2023-03-14T09:21:05;12.60;99.90
33368;DHT22;19724;51.114;13.906;2023-03-14T09:23:31;12.60;99.90
33368;DHT22;19724;51.114;13.906;2023-03-14T09:26:00;12.60;99.90
33368;DHT22;19724;51.114;13.906;2023-03-14T09:28:26;12.70;99.90
33368;DHT22;19724;51.114;13.906;2023-03-14T09:33:28;12.80;99.90
33368;DHT22;19724;51.114;13.906;2023-03-14T09:35:53;12.80;99.90
33368;DHT22;19724;51.114;13.906;2023-03-14T09:38:19;12.90;99.90
33368;DHT22;19724;51.114;13.906;2023-03-14T09:40:46;12.90;99.90
33368;DHT22;19724;51.114;13.906;2023-03-14T09:43:14;12.80;99.90
33368;DHT22;19724;51.114;13.906;2023-03-14T09:45:40;12.90;99.90
33368;DHT22;19724;51.114;13.906;2023-03-14T09:48:14;12.70;99.90
33368;DHT22;19724;51.114;13.906;2023-03-14T09:50:44;12.70;99.90
33368;DHT22;19724;51.114;13.906;2023-03-14T09:53:14;12.70;99.90
33368;DHT22;19724;51.114;13.906;2023-03-14T09:55:42;12.70;99.90
33368;DHT22;19724;51.114;13.906;2023-03-14T09:58:17;12.70;99.90
33368;DHT22;19724;51.114;13.906;2023-03-14T10:00:44;12.70;99.90
33368;DHT22;19724;51.114;13.906;2023-03-14T10:05:39;12.60;99.90
33368;DHT22;19724;51.114;13.906;2023-03-14T10:08:06;12.60;99.90
33368;DHT22;19724;51.114;13.906;2023-03-14T10:10:32;12.60;99.90
33368;DHT22;19724;51.114;13.906;2023-03-14T10:13:17;12.70;99.90
33368;DHT22;19724;51.114;13.906;2023-03-14T10:15:52;12.50;99.90
33368;DHT22;19724;51.114;13.906;2023-03-14T10:18:18;12.50;99.90
33368;DHT22;19724;51.114;13.906;2023-03-14T10:20:47;12.40;99.90
33368;DHT22;19724;51.114;13.906;2023-03-14T10:25:44;12.40;99.90
33368;DHT22;19724;51.114;13.906;2023-03-14T10:28:34;12.40;99.90
33368;DHT22;19724;51.114;13.906;2023-03-14T10:31:01;12.20;99.90
33368;DHT22;19724;51.114;13.906;2023-03-14T10:33:29;12.20;99.90
33368;DHT22;19724;51.114;13.906;2023-03-14T10:36:41;12.20;99.90
33368;DHT22;19724;51.114;13.906;2023-03-14T10:38:48;12.30;99.90
33368;DHT22;19724;51.114;13.906;2023-03-14T10:41:23;12.20;99.90
33368;DHT22;19724;51.114;13.906;2023-03-14T10:43:55;12.20;99.90
33368;DHT22;19724;51.114;13.906;2023-03-14T10:46:24;12.30;99.90
33368;DHT22;19724;51.114;13.906;2023-03-14T10:48:51;12.20;99.90
33368;DHT22;19724;51.114;13.906;2023-03-14T10:51:29;12.20;99.90
33368;DHT22;19724;51.114;13.906;2023-03-14T10:54:04;12.30;99.90
33368;DHT22;19724;51.114;13.906;2023-03-14T10:56:37;12.20;99.90
33368;DHT22;19724;51.114;13.906;2023-03-14T10:59:06;12.30;99.90
33368;DHT22;19724;51.114;13.906;2023-03-14T11:01:42;12.30;99.90
33368;DHT22;19724;51.114;13.906;2023-03-14T11:07:16;12.30;99.90
33368;DHT22;19724;51.114;13.906;2023-03-14T11:10:11;12.30;99.90
33368;DHT22;19724;51.114;13.906;2023-03-14T11:16:01;12.30;99.90
33368;DHT22;19724;51.114;13.906;2023-03-14T11:21:21;12.30;99.90
33368;DHT22;19724;51.114;13.906;2023-03-14T11:24:09;12.30;99.90
33368;DHT22;19724;51.114;13.906;2023-03-14T11:26:41;12.30;99.90
33368;DHT22;19724;51.114;13.906;2023-03-14T11:29:18;12.40;99.90
33368;DHT22;19724;51.114;13.906;2023-03-14T11:31:46;12.40;99.90
33368;DHT22;19724;51.114;13.906;2023-03-14T11:34:28;12.40;99.90
33368;DHT22;19724;51.114;13.906;2023-03-14T11:37:00;12.40;99.90
33368;DHT22;19724;51.114;13.906;2023-03-14T11:39:29;12.40;99.90
33368;DHT22;19724;51.114;13.906;2023-03-14T11:42:00;12.50;99.90
33368;DHT22;19724;51.114;13.906;2023-03-14T11:44:34;12.50;99.90
33368;DHT22;19724;51.114;13.906;2023-03-14T11:47:06;12.50;99.90
33368;DHT22;19724;51.114;13.906;2023-03-14T11:54:52;12.80;99.90
33368;DHT22;19724;51.114;13.906;2023-03-14T11:57:20;12.80;99.90
33368;DHT22;19724;51.114;13.906;2023-03-14T12:00:00;13.10;99.90
33368;DHT22;19724;51.114;13.906;2023-03-14T12:03:00;13.10;99.90
33368;DHT22;19724;51.114;13.906;2023-03-14T12:05:48;13.20;99.90
33368;DHT22;19724;51.114;13.906;2023-03-14T12:08:45;13.20;99.90
33368;DHT22;19724;51.114;13.906;2023-03-14T12:11:31;13.30;99.90
33368;DHT22;19724;51.114;13.906;2023-03-14T12:13:58;13.30;99.90
33368;DHT22;19724;51.114;13.906;2023-03-14T12:18:50;13.30;99.90
33368;DHT22;19724;51.114;13.906;2023-03-14T12:21:17;13.30;99.90
33368;DHT22;19724;51.114;13.906;2023-03-14T12:23:45;13.50;99.90
33368;DHT22;19724;51.114;13.906;2023-03-14T12:26:19;13.50;99.90
33368;DHT22;19724;51.114;13.906;2023-03-14T12:34:27;13.80;99.90
33368;DHT22;19724;51.114;13.906;2023-03-14T12:37:06;13.90;99.90
33368;DHT22;19724;51.114;13.906;2023-03-14T12:42:09;14.00;99.90
33368;DHT22;19724;51.114;13.906;2023-03-14T12:50:11;14.10;99.90
33368;DHT22;19724;51.114;13.906;2023-03-14T12:53:00;14.00;99.90
33368;DHT22;19724;51.114;13.906;2023-03-14T12:55:45;13.90;99.90
33368;DHT22;19724;51.114;13.906;2023-03-14T12:58:38;13.80;99.90
33368;DHT22;19724;51.114;13.906;2023-03-14T13:01:05;13.70;99.90
33368;DHT22;19724;51.114;13.906;2023-03-14T13:03:52;13.60;99.90
33368;DHT22;19724;51.114;13.906;2023-03-14T13:06:44;13.50;99.90
33368;DHT22;19724;51.114;13.906;2023-03-14T13:12:11;13.50;99.90
33368;DHT22;19724;51.114;13.906;2023-03-14T13:14:44;13.50;99.90
33368;DHT22;19724;51.114;13.906;2023-03-14T13:17:14;13.70;99.90
33368;DHT22;19724;51.114;13.906;2023-03-14T13:19:40;13.90;99.90
33368;DHT22;19724;51.114;13.906;2023-03-14T13:22:23;14.40;99.90
33368;DHT22;19724;51.114;13.906;2023-03-14T13:24:57;14.90;99.90
33368;DHT22;19724;51.114;13.906;2023-03-14T13:27:23;15.00;99.90
33368;DHT22;19724;51.114;13.906;2023-03-14T13:29:50;14.90;99.90
33368;DHT22;19724;51.114;13.906;2023-03-14T13:32:27;14.90;99.90
33368;DHT22;19724;51.114;13.906;2023-03-14T13:34:56;14.80;99.90
33368;DHT22;19724;51.114;13.906;2023-03-14T13:37:24;14.80;99.90
33368;DHT22;19724;51.114;13.906;2023-03-14T13:39:52;14.80;99.90
33368;DHT22;19724;51.114;13.906;2023-03-14T13:42:18;14.80;99.90
33368;DHT22;19724;51.114;13.906;2023-03-14T13:44:44;14.80;99.90
33368;DHT22;19724;51.114;13.906;2023-03-14T13:47:15;14.80;99.90
33368;DHT22;19724;51.114;13.906;2023-03-14T13:49:42;14.80;99.90
33368;DHT22;19724;51.114;13.906;2023-03-14T13:52:40;14.70;99.90
33368;DHT22;19724;51.114;13.906;2023-03-14T13:55:18;14.70;99.90
33368;DHT22;19724;51.114;13.906;2023-03-14T13:57:47;14.70;99.90
33368;DHT22;19724;51.114;13.906;2023-03-14T14:00:24;14.80;99.90
33368;DHT22;19724;51.114;13.906;2023-03-14T14:02:54;14.90;99.90
33368;DHT22;19724;51.114;13.906;2023-03-14T14:05:21;14.90;99.90
33368;DHT22;19724;51.114;13.906;2023-03-14T14:07:48;14.90;99.90
33368;DHT22;19724;51.114;13.906;2023-03-14T14:10:15;14.80;99.90
33368;DHT22;19724;51.114;13.906;2023-03-14T14:12:47;14.90;99.90
33368;DHT22;19724;51.114;13.906;2023-03-14T14:15:26;14.80;99.90
33368;DHT22;19724;51.114;13.906;2023-03-14T14:17:53;14.80;99.90
33368;DHT22;19724;51.114;13.906;2023-03-14T14:20:34;14.80;99.90
33368;DHT22;19724;51.114;13.906;2023-03-14T14:23:02;14.70;99.90
33368;DHT22;19724;51.114;13.906;2023-03-14T14:25:29;14.60;99.90
33368;DHT22;19724;51.114;13.906;2023-03-14T14:27:58;14.60;99.90
33368;DHT22;19724;51.114;13.906;2023-03-14T14:32:52;14.70;99.90
33368;DHT22;19724;51.114;13.906;2023-03-14T14:35:31;14.70;99.90
33368;DHT22;19724;51.114;13.906;2023-03-14T14:37:57;14.80;99.90
33368;DHT22;19724;51.114;13.906;2023-03-14T14:40:26;15.10;99.90
33368;DHT22;19724;51.114;13.906;2023-03-14T14:42:52;15.60;99.90
33368;DHT22;19724;51.114;13.906;2023-03-14T14:45:22;15.90;99.90
33368;DHT22;19724;51.114;13.906;2023-03-14T14:47:49;15.90;99.90
33368;DHT22;19724;51.114;13.906;2023-03-14T14:50:27;15.70;99.90
33368;DHT22;19724;51.114;13.906;2023-03-14T14:52:57;15.50;99.90
33368;DHT22;19724;51.114;13.906;2023-03-14T14:55:30;15.30;99.90
33368;DHT22;19724;51.114;13.906;2023-03-14T14:57:56;15.20;99.90
33368;DHT22;19724;51.114;13.906;2023-03-14T15:00:26;15.10;99.90
33368;DHT22;19724;51.114;13.906;2023-03-14T15:03:00;15.10;99.90
33368;DHT22;19724;51.114;13.906;2023-03-14T15:05:27;15.00;99.90
33368;DHT22;19724;51.114;13.906;2023-03-14T15:07:55;14.90;99.90
33368;DHT22;19724;51.114;13.906;2023-03-14T15:10:23;14.90;99.90
33368;DHT22;19724;51.114;13.906;2023-03-14T15:12:49;14.80;99.90
33368;DHT22;19724;51.114;13.906;2023-03-14T15:15:16;14.80;99.90
33368;DHT22;19724;51.114;13.906;2023-03-14T15:17:42;14.70;99.90
33368;DHT22;19724;51.114;13.906;2023-03-14T15:20:13;14.70;99.90
33368;DHT22;19724;51.114;13.906;2023-03-14T15:22:39;14.70;99.90
33368;DHT22;19724;51.114;13.906;2023-03-14T15:25:06;14.60;99.90
33368;DHT22;19724;51.114;13.906;2023-03-14T15:27:32;14.60;99.90
33368;DHT22;19724;51.114;13.906;2023-03-14T15:29:58;14.50;99.90
33368;DHT22;19724;51.114;13.906;2023-03-14T15:32:24;14.50;99.90
33368;DHT22;19724;51.114;13.906;2023-03-14T15:34:53;14.40;99.90
33368;DHT22;19724;51.114;13.906;2023-03-14T15:37:19;14.30;99.90
33368;DHT22;19724;51.114;13.906;2023-03-14T15:39:45;14.20;99.90
33368;DHT22;19724;51.114;13.906;2023-03-14T15:42:10;14.10;99.90
33368;DHT22;19724;51.114;13.906;2023-03-14T15:44:36;14.00;99.90
33368;DHT22;19724;51.114;13.906;2023-03-14T15:47:03;14.00;99.90
33368;DHT22;19724;51.114;13.906;2023-03-14T15:49:34;13.90;99.90
33368;DHT22;19724;51.114;13.906;2023-03-14T15:52:00;13.90;99.90
33368;DHT22;19724;51.114;13.906;2023-03-14T15:54:26;13.80;99.90
33368;DHT22;19724;51.114;13.906;2023-03-14T15:56:55;13.70;99.90
33368;DHT22;19724;51.114;13.906;2023-03-14T15:59:21;13.70;99.90
33368;DHT22;19724;51.114;13.906;2023-03-14T16:01:47;13.70;99.90
33368;DHT22;19724;51.114;13.906;2023-03-14T16:04:19;13.60;99.90
33368;DHT22;19724;51.114;13.906;2023-03-14T16:06:45;13.60;99.90
33368;DHT22;19724;51.114;13.906;2023-03-14T16:09:11;13.50;99.90
33368;DHT22;19724;51.114;13.906;2023-03-14T16:11:37;13.50;99.90
33368;DHT22;19724;51.114;13.906;2023-03-14T16:14:03;13.50;99.90
33368;DHT22;19724;51.114;13.906;2023-03-14T16:16:28;13.50;99.90
33368;DHT22;19724;51.114;13.906;2023-03-14T16:18:54;13.50;99.90
33368;DHT22;19724;51.114;13.906;2023-03-14T16:21:20;13.40;99.90
33368;DHT22;19724;51.114;13.906;2023-03-14T16:23:46;13.30;99.90